Time,TemperatureF,DewpointF,PressureIn,WindDirection,WindDirectionDegrees,WindSpeedMPH,WindSpeedGustMPH,Humidity,HourlyPrecipIn,Conditions,Clouds,dailyrainin,SoftwareType,DateUTC
2013-06-28 00:05:00,73.9,68.8,29.57,West,270,2.2,-999.0,84,-99.99,,,0.00,Acu-Link.com,2013-06-28 04:05:00,
2013-06-28 00:20:00,73.9,68.8,29.57,NW,315,0.0,-999.0,84,-99.99,,,0.00,Acu-Link.com,2013-06-28 04:20:00,
2013-06-28 00:35:00,73.9,68.8,29.56,South,180,1.7,-999.0,84,-99.99,,,0.00,Acu-Link.com,2013-06-28 04:35:00,
2013-06-28 00:50:00,73.9,68.8,29.55,East,90,3.7,-999.0,84,-99.99,,,0.00,Acu-Link.com,2013-06-28 04:50:00,
2013-06-28 01:06:00,73.9,68.8,29.55,South,180,3.2,-999.0,84,-99.99,,,0.00,Acu-Link.com,2013-06-28 05:06:00,
2013-06-28 01:21:00,73.6,68.5,29.55,West,270,1.7,-999.0,84,-99.99,,,0.00,Acu-Link.com,2013-06-28 05:21:00,
2013-06-28 01:36:00,73.4,68.3,29.55,WNW,292,0.0,-999.0,84,-99.99,,,0.00,Acu-Link.com,2013-06-28 05:36:00,
2013-06-28 01:51:00,73.2,68.4,29.54,SSW,202,2.2,-999.0,85,-99.99,,,0.00,Acu-Link.com,2013-06-28 05:51:00,
2013-06-28 02:07:00,73.0,68.2,29.53,SSW,202,2.2,-999.0,85,-99.99,,,0.00,Acu-Link.com,2013-06-28 06:07:00,
2013-06-28 02:22:00,72.9,68.5,29.52,South,180,0.0,-999.0,86,-99.99,,,0.00,Acu-Link.com,2013-06-28 06:22:00,
2013-06-28 02:37:00,72.9,68.5,29.53,SSW,202,2.7,-999.0,86,-99.99,,,0.00,Acu-Link.com,2013-06-28 06:37:00,
2013-06-28 02:52:00,72.9,68.5,29.52,SSW,202,2.2,-999.0,86,-99.99,,,0.00,Acu-Link.com,2013-06-28 06:52:00,
2013-06-28 03:07:00,72.7,68.6,29.51,WNW,292,2.7,-999.0,87,-99.99,,,0.00,Acu-Link.com,2013-06-28 07:07:00,
2013-06-28 03:23:00,72.7,68.6,29.51,NNW,337,0.0,-999.0,87,-99.99,,,0.00,Acu-Link.com,2013-06-28 07:23:00,
2013-06-28 03:38:00,72.5,68.4,29.51,NW,315,2.2,-999.0,87,-99.99,,,0.00,Acu-Link.com,2013-06-28 07:38:00,
2013-06-28 03:53:00,72.7,68.9,29.50,South,180,1.7,-999.0,88,-99.99,,,0.00,Acu-Link.com,2013-06-28 07:53:00,
2013-06-28 04:08:00,72.7,68.9,29.50,West,270,0.0,-999.0,88,-99.99,,,0.00,Acu-Link.com,2013-06-28 08:08:00,
2013-06-28 04:24:00,72.7,68.9,29.51,SE,135,2.2,-999.0,88,-99.99,,,0.00,Acu-Link.com,2013-06-28 08:24:00,
2013-06-28 04:39:00,72.7,68.9,29.50,WSW,247,2.7,-999.0,88,-99.99,,,0.00,Acu-Link.com,2013-06-28 08:39:00,
2013-06-28 04:54:00,72.7,68.9,29.51,West,270,0.0,-999.0,88,-99.99,,,0.00,Acu-Link.com,2013-06-28 08:54:00,
2013-06-28 05:09:00,72.7,68.9,29.51,SE,135,0.0,-999.0,88,-99.99,,,0.00,Acu-Link.com,2013-06-28 09:09:00,
2013-06-28 05:24:00,72.7,68.9,29.51,SSW,202,2.7,-999.0,88,-99.99,,,0.00,Acu-Link.com,2013-06-28 09:24:00,
2013-06-28 05:40:00,72.9,69.1,29.51,SW,225,2.7,-999.0,88,-99.99,,,0.00,Acu-Link.com,2013-06-28 09:40:00,
2013-06-28 05:55:00,72.9,69.1,29.52,NE,45,1.1,-999.0,88,-99.99,,,0.00,Acu-Link.com,2013-06-28 09:55:00,
2013-06-28 06:10:00,73.6,69.8,29.52,SW,225,3.7,-999.0,88,-99.99,,,0.00,Acu-Link.com,2013-06-28 10:10:00,
2013-06-28 06:25:00,73.9,70.1,29.52,ESE,112,2.2,-999.0,88,-99.99,,,0.00,Acu-Link.com,2013-06-28 10:25:00,
2013-06-28 06:41:00,75.4,70.6,29.53,ESE,112,1.7,-999.0,85,-99.99,,,0.00,Acu-Link.com,2013-06-28 10:41:00,
2013-06-28 06:56:00,76.8,70.9,29.53,South,180,2.7,-999.0,82,-99.99,,,0.00,Acu-Link.com,2013-06-28 10:56:00,
2013-06-28 07:11:00,78.3,71.2,29.53,SSE,157,3.7,-999.0,79,-99.99,,,0.00,Acu-Link.com,2013-06-28 11:11:00,
2013-06-28 07:26:00,78.8,70.6,29.53,West,270,3.7,-999.0,76,-99.99,,,0.00,Acu-Link.com,2013-06-28 11:26:00,
2013-06-28 07:41:00,80.1,70.6,29.53,SW,225,4.7,-999.0,73,-99.99,,,0.00,Acu-Link.com,2013-06-28 11:41:00,
2013-06-28 07:57:00,81.1,70.8,29.52,ESE,112,2.7,-999.0,71,-99.99,,,0.00,Acu-Link.com,2013-06-28 11:57:00,
2013-06-28 08:12:00,83.1,71.0,29.53,WNW,292,4.7,-999.0,67,-99.99,,,0.00,Acu-Link.com,2013-06-28 12:12:00,
2013-06-28 08:27:00,83.3,70.3,29.52,NW,315,2.7,-999.0,65,-99.99,,,0.00,Acu-Link.com,2013-06-28 12:27:00,
2013-06-28 08:42:00,85.5,70.5,29.52,NW,315,2.7,-999.0,61,-99.99,,,0.00,Acu-Link.com,2013-06-28 12:42:00,
2013-06-28 08:57:00,86.9,70.8,29.51,SSW,202,3.7,-999.0,59,-99.99,,,0.00,Acu-Link.com,2013-06-28 12:57:00,
2013-06-28 09:13:00,88.0,71.3,29.50,SSW,202,2.7,-999.0,58,-99.99,,,0.00,Acu-Link.com,2013-06-28 13:13:00,
2013-06-28 09:28:00,86.9,70.8,29.49,South,180,5.8,-999.0,59,-99.99,,,0.00,Acu-Link.com,2013-06-28 13:28:00,
2013-06-28 09:43:00,83.5,70.5,29.50,ESE,112,2.7,-999.0,65,-99.99,,,0.00,Acu-Link.com,2013-06-28 13:43:00,
2013-06-28 09:58:00,84.9,71.3,29.50,North,0,1.7,-999.0,64,-99.99,,,0.00,Acu-Link.com,2013-06-28 13:58:00,
2013-06-28 10:14:00,85.3,70.3,29.49,South,180,3.2,-999.0,61,-99.99,,,0.00,Acu-Link.com,2013-06-28 14:14:00,
2013-06-28 10:29:00,85.1,69.6,29.49,SSE,157,2.7,-999.0,60,-99.99,,,0.00,Acu-Link.com,2013-06-28 14:29:00,
2013-06-28 10:44:00,84.6,69.2,29.50,South,180,4.2,-999.0,60,-99.99,,,0.00,Acu-Link.com,2013-06-28 14:44:00,
2013-06-28 10:59:00,86.0,69.5,29.49,South,180,1.1,-999.0,58,-99.99,,,0.00,Acu-Link.com,2013-06-28 14:59:00,
2013-06-28 11:14:00,85.1,69.1,29.50,West,270,3.7,-999.0,59,-99.99,,,0.00,Acu-Link.com,2013-06-28 15:14:00,
2013-06-28 11:30:00,86.4,69.3,29.50,SSW,202,2.2,-999.0,57,-99.99,,,0.00,Acu-Link.com,2013-06-28 15:30:00,
2013-06-28 11:45:00,87.1,70.0,29.51,ESE,112,3.7,-999.0,57,-99.99,,,0.00,Acu-Link.com,2013-06-28 15:45:00,
2013-06-28 12:00:00,88.5,69.7,29.50,SE,135,2.2,-999.0,54,-99.99,,,0.00,Acu-Link.com,2013-06-28 16:00:00,
2013-06-28 12:15:00,88.5,69.7,29.50,South,180,4.2,-999.0,54,-99.99,,,0.00,Acu-Link.com,2013-06-28 16:15:00,
2013-06-28 12:30:00,87.1,68.9,29.49,WSW,247,2.2,-999.0,55,-99.99,,,0.00,Acu-Link.com,2013-06-28 16:30:00,
2013-06-28 12:46:00,89.8,70.3,29.50,SW,225,6.3,-999.0,53,-99.99,,,0.00,Acu-Link.com,2013-06-28 16:46:00,
2013-06-28 13:01:00,87.1,69.5,29.50,SSE,157,2.2,-999.0,56,-99.99,,,0.00,Acu-Link.com,2013-06-28 17:01:00,
2013-06-28 13:16:00,89.4,70.5,29.49,NNE,22,4.2,-999.0,54,-99.99,,,0.00,Acu-Link.com,2013-06-28 17:16:00,
2013-06-28 13:31:00,89.8,69.8,29.48,North,0,4.7,-999.0,52,-99.99,,,0.00,Acu-Link.com,2013-06-28 17:31:00,
2013-06-28 13:46:00,88.9,70.6,29.48,South,180,2.7,-999.0,55,-99.99,,,0.00,Acu-Link.com,2013-06-28 17:46:00,
2013-06-28 14:02:00,90.0,70.5,29.48,SW,225,4.7,-999.0,53,-99.99,,,0.00,Acu-Link.com,2013-06-28 18:02:00,
2013-06-28 14:17:00,90.5,70.4,29.47,ESE,112,4.2,-999.0,52,-99.99,,,0.00,Acu-Link.com,2013-06-28 18:17:00,
2013-06-28 14:32:00,91.0,71.5,29.47,SSE,157,6.8,-999.0,53,-99.99,,,0.00,Acu-Link.com,2013-06-28 18:32:00,
2013-06-28 14:47:00,91.2,71.1,29.46,WSW,247,3.7,-999.0,52,-99.99,,,0.00,Acu-Link.com,2013-06-28 18:47:00,
2013-06-28 15:03:00,90.9,70.8,29.46,WSW,247,3.7,-999.0,52,-99.99,,,0.00,Acu-Link.com,2013-06-28 19:03:00,
2013-06-28 15:18:00,88.3,70.1,29.44,ESE,112,2.2,-999.0,55,-99.99,,,0.00,Acu-Link.com,2013-06-28 19:18:00,
2013-06-28 15:33:00,90.3,70.8,29.44,ESE,112,5.8,-999.0,53,-99.99,,,0.00,Acu-Link.com,2013-06-28 19:33:00,
2013-06-28 15:48:00,89.8,70.9,29.44,WSW,247,3.2,-999.0,54,-99.99,,,0.00,Acu-Link.com,2013-06-28 19:48:00,
2013-06-28 16:03:00,90.7,71.7,29.43,South,180,3.2,-999.0,54,-99.99,,,0.00,Acu-Link.com,2013-06-28 20:03:00,
2013-06-28 16:19:00,89.2,69.8,29.44,WNW,292,6.8,-999.0,53,-99.99,,,0.00,Acu-Link.com,2013-06-28 20:19:00,
2013-06-28 16:34:00,89.4,70.0,29.44,WSW,247,3.2,-999.0,53,-99.99,,,0.00,Acu-Link.com,2013-06-28 20:34:00,
2013-06-28 16:49:00,88.5,69.1,29.44,WNW,292,5.3,-999.0,53,-99.99,,,0.00,Acu-Link.com,2013-06-28 20:49:00,
2013-06-28 17:04:00,87.3,69.1,29.44,West,270,2.7,-999.0,55,-99.99,,,0.00,Acu-Link.com,2013-06-28 21:04:00,
2013-06-28 17:19:00,86.7,68.6,29.44,South,180,3.2,-999.0,55,-99.99,,,0.00,Acu-Link.com,2013-06-28 21:19:00,
2013-06-28 17:35:00,87.1,68.9,29.43,SE,135,3.7,-999.0,55,-99.99,,,0.00,Acu-Link.com,2013-06-28 21:35:00,
2013-06-28 17:50:00,86.9,69.3,29.44,SSW,202,2.7,-999.0,56,-99.99,,,0.00,Acu-Link.com,2013-06-28 21:50:00,
2013-06-28 18:05:00,85.8,68.8,29.43,South,180,1.1,-999.0,57,-99.99,,,0.00,Acu-Link.com,2013-06-28 22:05:00,
2013-06-28 18:20:00,84.0,68.1,29.45,South,180,3.2,-999.0,59,-99.99,,,0.00,Acu-Link.com,2013-06-28 22:20:00,
2013-06-28 18:35:00,83.1,67.3,29.46,ESE,112,2.2,-999.0,59,-99.99,,,0.00,Acu-Link.com,2013-06-28 22:35:00,
2013-06-28 18:51:00,82.8,67.0,29.45,SW,225,3.2,-999.0,59,-99.99,,,0.00,Acu-Link.com,2013-06-28 22:51:00,
2013-06-28 19:06:00,82.4,68.0,29.44,SE,135,3.2,-999.0,62,-99.99,,,0.00,Acu-Link.com,2013-06-28 23:06:00,
2013-06-28 19:21:00,84.6,69.2,29.43,SW,225,2.7,-999.0,60,-99.99,,,0.00,Acu-Link.com,2013-06-28 23:21:00,
2013-06-28 19:36:00,83.1,69.2,29.43,SSW,202,1.1,-999.0,63,-99.99,,,0.00,Acu-Link.com,2013-06-28 23:36:00,
2013-06-28 19:51:00,82.6,69.2,29.44,WNW,292,1.1,-999.0,64,-99.99,,,0.00,Acu-Link.com,2013-06-28 23:51:00,
2013-06-28 20:07:00,81.0,69.4,29.46,WSW,247,3.7,-999.0,68,-99.99,,,0.00,Acu-Link.com,2013-06-29 00:07:00,
2013-06-28 20:22:00,79.7,66.4,29.46,SW,225,8.9,-999.0,64,-99.99,,,0.00,Acu-Link.com,2013-06-29 00:22:00,
2013-06-28 20:37:00,77.7,64.5,29.47,ESE,112,2.2,-999.0,64,-99.99,,,0.00,Acu-Link.com,2013-06-29 00:37:00,
2013-06-28 20:52:00,75.9,64.1,29.46,SE,135,5.8,-999.0,67,-99.99,,,0.00,Acu-Link.com,2013-06-29 00:52:00,
2013-06-28 21:08:00,75.6,63.9,29.50,WNW,292,7.8,-999.0,67,-99.99,,,0.00,Acu-Link.com,2013-06-29 01:08:00,
2013-06-28 21:23:00,74.5,65.3,29.51,West,270,6.8,-999.0,73,-99.99,,,0.01,Acu-Link.com,2013-06-29 01:23:00,
2013-06-28 21:38:00,70.9,65.1,29.52,NNE,22,2.2,-999.0,82,-99.99,,,0.13,Acu-Link.com,2013-06-29 01:38:00,
2013-06-28 21:53:00,70.0,64.6,29.52,West,270,2.2,-999.0,83,-99.99,,,0.15,Acu-Link.com,2013-06-29 01:53:00,
2013-06-28 22:09:00,69.4,64.3,29.51,West,270,1.7,-999.0,84,-99.99,,,0.20,Acu-Link.com,2013-06-29 02:09:00,
2013-06-28 22:24:00,69.1,64.4,29.51,South,180,0.0,-999.0,85,-99.99,,,0.25,Acu-Link.com,2013-06-29 02:24:00,
2013-06-28 22:39:00,69.1,64.7,29.53,SE,135,1.7,-999.0,86,-99.99,,,0.25,Acu-Link.com,2013-06-29 02:39:00,
2013-06-28 22:54:00,69.1,65.1,29.53,ESE,112,1.1,-999.0,87,-99.99,,,0.25,Acu-Link.com,2013-06-29 02:54:00,
2013-06-28 23:10:00,68.7,64.7,29.50,NW,315,1.1,-999.0,87,-99.99,,,0.31,Acu-Link.com,2013-06-29 03:10:00,
2013-06-28 23:25:00,68.7,64.7,29.51,WSW,247,0.0,-999.0,87,-99.99,,,0.31,Acu-Link.com,2013-06-29 03:25:00,
2013-06-28 23:40:00,68.5,64.5,29.49,SSW,202,0.0,-999.0,87,-99.99,,,0.31,Acu-Link.com,2013-06-29 03:40:00,
2013-06-28 23:55:00,68.5,64.5,29.49,South,180,2.7,-999.0,87,-99.99,,,0.31,Acu-Link.com,2013-06-29 03:55:00,